sensor_id;sensor_type;location;lat;lon;timestamp;temperature;humidity
13174;DHT22;6652;48.802;9.190;2023-08-12T07:10:44;27.70;99.90
13174;DHT22;6652;48.802;9.190;2023-08-12T07:13:11;27.70;99.90
13174;DHT22;6652;48.802;9.190;2023-08-12T07:15:37;27.60;99.90
13174;DHT22;6652;48.802;9.190;2023-08-12T07:18:05;27.70;99.90
13174;DHT22;6652;48.802;9.190;2023-08-12T07:20:32;28.10;99.90
13174;DHT22;6652;48.802;9.190;2023-08-12T07:22:58;27.90;99.90
13174;DHT22;6652;48.802;9.190;2023-08-12T07:25:25;27.60;99.90
13174;DHT22;6652;48.802;9.190;2023-08-12T07:27:53;27.30;99.90
13174;DHT22;6652;48.802;9.190;2023-08-12T07:30:20;27.00;99.90
13174;DHT22;6652;48.802;9.190;2023-08-12T07:32:47;27.10;99.90
13174;DHT22;6652;48.802;9.190;2023-08-12T07:35:14;28.70;99.90
13174;DHT22;6652;48.802;9.190;2023-08-12T07:37:41;30.20;99.90
13174;DHT22;6652;48.802;9.190;2023-08-12T07:40:09;31.10;99.90
13174;DHT22;6652;48.802;9.190;2023-08-12T07:42:36;31.80;99.90
13174;DHT22;6652;48.802;9.190;2023-08-12T07:45:06;32.80;99.90
13174;DHT22;6652;48.802;9.190;2023-08-12T07:47:33;33.50;99.90
13174;DHT22;6652;48.802;9.190;2023-08-12T07:50:00;34.10;99.90
13174;DHT22;6652;48.802;9.190;2023-08-12T07:52:27;34.90;98.30
13174;DHT22;6652;48.802;9.190;2023-08-12T07:54:54;35.50;96.10
13174;DHT22;6652;48.802;9.190;2023-08-12T07:57:20;36.00;93.50
13174;DHT22;6652;48.802;9.190;2023-08-12T07:59:49;36.70;92.40
13174;DHT22;6652;48.802;9.190;2023-08-12T08:02:18;37.30;88.20
13174;DHT22;6652;48.802;9.190;2023-08-12T08:04:45;37.60;84.80
13174;DHT22;6652;48.802;9.190;2023-08-12T08:07:14;38.00;81.90
13174;DHT22;6652;48.802;9.190;2023-08-12T08:09:41;37.90;76.70
13174;DHT22;6652;48.802;9.190;2023-08-12T08:12:09;37.90;76.70
13174;DHT22;6652;48.802;9.190;2023-08-12T08:14:35;38.20;74.70
13174;DHT22;6652;48.802;9.190;2023-08-12T08:17:02;38.30;72.20
13174;DHT22;6652;48.802;9.190;2023-08-12T08:19:31;37.90;71.30
13174;DHT22;6652;48.802;9.190;2023-08-12T08:21:58;37.70;70.70
13174;DHT22;6652;48.802;9.190;2023-08-12T08:24:25;37.80;71.40
13174;DHT22;6652;48.802;9.190;2023-08-12T08:26:51;37.70;70.90
13174;DHT22;6652;48.802;9.190;2023-08-12T08:29:18;37.50;70.90
13174;DHT22;6652;48.802;9.190;2023-08-12T08:31:45;36.50;71.60
13174;DHT22;6652;48.802;9.190;2023-08-12T08:34:12;35.10;73.80
13174;DHT22;6652;48.802;9.190;2023-08-12T08:36:40;35.10;77.70
13174;DHT22;6652;48.802;9.190;2023-08-12T08:39:07;36.10;74.50
13174;DHT22;6652;48.802;9.190;2023-08-12T08:41:38;37.20;71.20
13174;DHT22;6652;48.802;9.190;2023-08-12T08:44:07;37.70;69.20
13174;DHT22;6652;48.802;9.190;2023-08-12T08:46:35;38.20;67.10
13174;DHT22;6652;48.802;9.190;2023-08-12T08:49:02;38.50;66.40
13174;DHT22;6652;48.802;9.190;2023-08-12T08:51:31;38.30;66.10
13174;DHT22;6652;48.802;9.190;2023-08-12T08:53:59;37.60;65.90
13174;DHT22;6652;48.802;9.190;2023-08-12T08:56:31;36.90;67.60
13174;DHT22;6652;48.802;9.190;2023-08-12T08:58:58;37.50;68.40
13174;DHT22;6652;48.802;9.190;2023-08-12T09:01:26;38.10;65.90
13174;DHT22;6652;48.802;9.190;2023-08-12T09:03:53;38.80;65.60
13174;DHT22;6652;48.802;9.190;2023-08-12T09:06:21;39.40;62.50
13174;DHT22;6652;48.802;9.190;2023-08-12T09:08:51;40.10;62.20
13174;DHT22;6652;48.802;9.190;2023-08-12T09:11:19;40.20;60.50
13174;DHT22;6652;48.802;9.190;2023-08-12T09:13:47;40.10;59.60
13174;DHT22;6652;48.802;9.190;2023-08-12T09:16:14;39.90;59.30
13174;DHT22;6652;48.802;9.190;2023-08-12T09:18:42;39.80;58.90
13174;DHT22;6652;48.802;9.190;2023-08-12T09:21:10;39.70;59.20
13174;DHT22;6652;48.802;9.190;2023-08-12T09:23:38;39.40;59.10
13174;DHT22;6652;48.802;9.190;2023-08-12T09:26:13;39.00;59.60
13174;DHT22;6652;48.802;9.190;2023-08-12T09:28:44;39.40;61.70
13174;DHT22;6652;48.802;9.190;2023-08-12T09:31:22;39.70;59.90
13174;DHT22;6652;48.802;9.190;2023-08-12T09:33:49;39.10;59.80
13174;DHT22;6652;48.802;9.190;2023-08-12T09:36:16;39.60;58.90
13174;DHT22;6652;48.802;9.190;2023-08-12T09:38:43;39.80;58.60
13174;DHT22;6652;48.802;9.190;2023-08-12T09:41:10;40.30;58.20
13174;DHT22;6652;48.802;9.190;2023-08-12T09:43:40;40.70;58.20
13174;DHT22;6652;48.802;9.190;2023-08-12T09:46:12;41.00;56.80
13174;DHT22;6652;48.802;9.190;2023-08-12T09:48:40;41.10;56.40
13174;DHT22;6652;48.802;9.190;2023-08-12T09:51:07;40.90;55.20
13174;DHT22;6652;48.802;9.190;2023-08-12T09:53:34;40.60;56.30
13174;DHT22;6652;48.802;9.190;2023-08-12T09:56:06;39.60;56.20
13174;DHT22;6652;48.802;9.190;2023-08-12T09:58:33;38.00;58.20
13174;DHT22;6652;48.802;9.190;2023-08-12T10:01:02;36.90;60.90
13174;DHT22;6652;48.802;9.190;2023-08-12T10:03:32;36.00;62.60
13174;DHT22;6652;48.802;9.190;2023-08-12T10:05:59;35.30;65.10
13174;DHT22;6652;48.802;9.190;2023-08-12T10:08:27;34.70;65.00
13174;DHT22;6652;48.802;9.190;2023-08-12T10:10:54;34.10;67.00
13174;DHT22;6652;48.802;9.190;2023-08-12T10:13:21;33.30;69.50
13174;DHT22;6652;48.802;9.190;2023-08-12T10:15:52;32.90;72.20
13174;DHT22;6652;48.802;9.190;2023-08-12T10:18:20;32.60;73.00
13174;DHT22;6652;48.802;9.190;2023-08-12T10:20:52;32.40;75.20
13174;DHT22;6652;48.802;9.190;2023-08-12T10:23:22;32.50;78.10
13174;DHT22;6652;48.802;9.190;2023-08-12T10:26:13;32.70;78.70
13174;DHT22;6652;48.802;9.190;2023-08-12T10:28:45;32.90;77.70
13174;DHT22;6652;48.802;9.190;2023-08-12T10:31:49;33.00;76.90
13174;DHT22;6652;48.802;9.190;2023-08-12T10:34:43;33.00;77.70
13174;DHT22;6652;48.802;9.190;2023-08-12T10:37:20;33.40;78.30
13174;DHT22;6652;48.802;9.190;2023-08-12T10:40:05;34.00;77.00
13174;DHT22;6652;48.802;9.190;2023-08-12T10:42:46;35.20;74.00
13174;DHT22;6652;48.802;9.190;2023-08-12T10:45:41;35.90;71.40
13174;DHT22;6652;48.802;9.190;2023-08-12T10:48:23;36.50;69.50
13174;DHT22;6652;48.802;9.190;2023-08-12T10:50:57;36.40;68.20
13174;DHT22;6652;48.802;9.190;2023-08-12T10:53:41;35.80;66.90
13174;DHT22;6652;48.802;9.190;2023-08-12T10:56:15;35.30;68.00
13174;DHT22;6652;48.802;9.190;2023-08-12T10:58:54;34.90;67.50
13174;DHT22;6652;48.802;9.190;2023-08-12T11:01:28;34.70;67.70
13174;DHT22;6652;48.802;9.190;2023-08-12T11:04:02;34.80;70.30
13174;DHT22;6652;48.802;9.190;2023-08-12T11:06:52;35.20;70.50
13174;DHT22;6652;48.802;9.190;2023-08-12T11:09:23;35.60;69.20
13174;DHT22;6652;48.802;9.190;2023-08-12T11:11:57;35.80;66.70
13174;DHT22;6652;48.802;9.190;2023-08-12T11:14:34;35.70;66.50
13174;DHT22;6652;48.802;9.190;2023-08-12T11:17:19;35.50;66.30
13174;DHT22;6652;48.802;9.190;2023-08-12T11:19:50;35.50;66.60
13174;DHT22;6652;48.802;9.190;2023-08-12T11:22:19;35.70;66.50
13174;DHT22;6652;48.802;9.190;2023-08-12T11:24:52;35.70;65.00
13174;DHT22;6652;48.802;9.190;2023-08-12T11:27:21;35.20;65.20
13174;DHT22;6652;48.802;9.190;2023-08-12T11:29:56;34.80;66.90
13174;DHT22;6652;48.802;9.190;2023-08-12T11:32:24;34.50;67.70
13174;DHT22;6652;48.802;9.190;2023-08-12T11:35:03;34.40;68.20
13174;DHT22;6652;48.802;9.190;2023-08-12T11:37:34;34.50;69.30
13174;DHT22;6652;48.802;9.190;2023-08-12T11:40:08;34.80;68.70
13174;DHT22;6652;48.802;9.190;2023-08-12T11:42:46;34.80;67.10
13174;DHT22;6652;48.802;9.190;2023-08-12T11:45:21;34.80;66.90
13174;DHT22;6652;48.802;9.190;2023-08-12T11:47:49;34.70;66.60
13174;DHT22;6652;48.802;9.190;2023-08-12T11:50:26;34.50;67.10
13174;DHT22;6652;48.802;9.190;2023-08-12T11:52:56;34.50;67.60
13174;DHT22;6652;48.802;9.190;2023-08-12T11:55:26;34.70;68.50
13174;DHT22;6652;48.802;9.190;2023-08-12T11:57:57;35.00;68.20
13174;DHT22;6652;48.802;9.190;2023-08-12T12:00:26;34.80;68.10
13174;DHT22;6652;48.802;9.190;2023-08-12T12:02:59;34.40;67.50
13174;DHT22;6652;48.802;9.190;2023-08-12T12:05:28;33.90;72.50
13174;DHT22;6652;48.802;9.190;2023-08-12T12:07:58;32.80;77.90
13174;DHT22;6652;48.802;9.190;2023-08-12T12:10:30;31.80;81.20
13174;DHT22;6652;48.802;9.190;2023-08-12T12:12:58;31.10;85.60
13174;DHT22;6652;48.802;9.190;2023-08-12T12:15:26;30.20;88.50
13174;DHT22;6652;48.802;9.190;2023-08-12T12:17:54;29.50;91.40
13174;DHT22;6652;48.802;9.190;2023-08-12T12:20:22;28.90;92.70
13174;DHT22;6652;48.802;9.190;2023-08-12T12:22:50;28.50;93.90
13174;DHT22;6652;48.802;9.190;2023-08-12T12:25:18;28.20;94.40
13174;DHT22;6652;48.802;9.190;2023-08-12T12:27:53;28.00;95.60
13174;DHT22;6652;48.802;9.190;2023-08-12T12:30:21;27.90;98.00
13174;DHT22;6652;48.802;9.190;2023-08-12T12:32:49;27.70;99.90
13174;DHT22;6652;48.802;9.190;2023-08-12T12:35:18;27.30;99.90
13174;DHT22;6652;48.802;9.190;2023-08-12T12:37:46;27.00;99.90
13174;DHT22;6652;48.802;9.190;2023-08-12T12:40:14;26.90;99.90
13174;DHT22;6652;48.802;9.190;2023-08-12T12:42:44;26.80;99.90
13174;DHT22;6652;48.802;9.190;2023-08-12T12:45:13;26.50;99.90
13174;DHT22;6652;48.802;9.190;2023-08-12T12:47:41;26.20;99.90
13174;DHT22;6652;48.802;9.190;2023-08-12T12:50:09;26.10;99.90
13174;DHT22;6652;48.802;9.190;2023-08-12T12:52:39;26.00;99.90
13174;DHT22;6652;48.802;9.190;2023-08-12T12:55:10;26.00;99.90
13174;DHT22;6652;48.802;9.190;2023-08-12T12:57:38;25.90;99.90
13174;DHT22;6652;48.802;9.190;2023-08-12T13:00:07;26.00;99.90
13174;DHT22;6652;48.802;9.190;2023-08-12T13:02:41;26.00;99.90
13174;DHT22;6652;48.802;9.190;2023-08-12T13:05:09;25.90;99.90
13174;DHT22;6652;48.802;9.190;2023-08-12T13:07:37;25.90;99.90
13174;DHT22;6652;48.802;9.190;2023-08-12T13:10:09;25.90;99.90
13174;DHT22;6652;48.802;9.190;2023-08-12T13:12:37;26.00;99.90
13174;DHT22;6652;48.802;9.190;2023-08-12T13:15:09;25.90;99.90
13174;DHT22;6652;48.802;9.190;2023-08-12T13:17:41;26.00;99.90
13174;DHT22;6652;48.802;9.190;2023-08-12T13:20:10;26.00;99.90
13174;DHT22;6652;48.802;9.190;2023-08-12T13:22:38;26.10;99.90
13174;DHT22;6652;48.802;9.190;2023-08-12T13:25:06;26.00;99.90
13174;DHT22;6652;48.802;9.190;2023-08-12T13:27:34;26.00;99.90
13174;DHT22;6652;48.802;9.190;2023-08-12T13:30:05;26.00;99.90
13174;DHT22;6652;48.802;9.190;2023-08-12T13:32:32;25.80;99.90
13174;DHT22;6652;48.802;9.190;2023-08-12T13:35:04;25.60;99.90
13174;DHT22;6652;48.802;9.190;2023-08-12T13:37:32;25.40;99.90
13174;DHT22;6652;48.802;9.190;2023-08-12T13:40:06;25.10;99.90
13174;DHT22;6652;48.802;9.190;2023-08-12T13:42:51;25.00;99.90
13174;DHT22;6652;48.802;9.190;2023-08-12T13:45:20;25.00;99.90
13174;DHT22;6652;48.802;9.190;2023-08-12T13:47:47;25.10;99.90
13174;DHT22;6652;48.802;9.190;2023-08-12T13:50:18;25.40;99.90
13174;DHT22;6652;48.802;9.190;2023-08-12T13:52:48;25.70;99.90
13174;DHT22;6652;48.802;9.190;2023-08-12T13:55:22;25.90;99.90
13174;DHT22;6652;48.802;9.190;2023-08-12T13:57:52;26.20;99.90
13174;DHT22;6652;48.802;9.190;2023-08-12T14:00:25;26.60;99.90
13174;DHT22;6652;48.802;9.190;2023-08-12T14:03:05;27.00;99.90
13174;DHT22;6652;48.802;9.190;2023-08-12T14:05:36;27.10;99.90
13174;DHT22;6652;48.802;9.190;2023-08-12T14:08:26;27.00;99.90
13174;DHT22;6652;48.802;9.190;2023-08-12T14:10:59;26.80;99.90
13174;DHT22;6652;48.802;9.190;2023-08-12T14:13:29;26.90;99.90
13174;DHT22;6652;48.802;9.190;2023-08-12T14:15:56;26.30;99.90
13174;DHT22;6652;48.802;9.190;2023-08-12T14:21:01;26.90;99.90
13174;DHT22;6652;48.802;9.190;2023-08-12T14:23:27;27.00;99.90
13174;DHT22;6652;48.802;9.190;2023-08-12T14:25:54;27.00;99.90
13174;DHT22;6652;48.802;9.190;2023-08-12T14:28:22;27.20;99.90
13174;DHT22;6652;48.802;9.190;2023-08-12T14:30:49;27.30;99.90
13174;DHT22;6652;48.802;9.190;2023-08-12T14:33:16;27.40;99.90
13174;DHT22;6652;48.802;9.190;2023-08-12T14:35:43;27.50;99.90
13174;DHT22;6652;48.802;9.190;2023-08-12T14:38:11;27.80;99.90
13174;DHT22;6652;48.802;9.190;2023-08-12T14:40:39;28.10;99.90
13174;DHT22;6652;48.802;9.190;2023-08-12T14:43:05;28.10;99.90
13174;DHT22;6652;48.802;9.190;2023-08-12T14:45:32;28.10;99.90
13174;DHT22;6652;48.802;9.190;2023-08-12T14:47:59;28.20;99.90
13174;DHT22;6652;48.802;9.190;2023-08-12T14:50:26;28.00;99.90
13174;DHT22;6652;48.802;9.190;2023-08-12T14:52:53;28.00;99.90
13174;DHT22;6652;48.802;9.190;2023-08-12T14:55:21;28.00;99.90
13174;DHT22;6652;48.802;9.190;2023-08-12T14:57:48;28.10;99.90
13174;DHT22;6652;48.802;9.190;2023-08-12T15:00:15;28.40;99.90
13174;DHT22;6652;48.802;9.190;2023-08-12T15:02:42;28.30;99.90
13174;DHT22;6652;48.802;9.190;2023-08-12T15:05:09;28.20;99.90
13174;DHT22;6652;48.802;9.190;2023-08-12T15:07:37;28.50;99.90
13174;DHT22;6652;48.802;9.190;2023-08-12T15:10:05;28.40;99.90
13174;DHT22;6652;48.802;9.190;2023-08-12T15:12:33;28.50;99.90
13174;DHT22;6652;48.802;9.190;2023-08-12T15:15:00;28.70;99.90
13174;DHT22;6652;48.802;9.190;2023-08-12T15:17:27;28.90;99.90
13174;DHT22;6652;48.802;9.190;2023-08-12T15:19:54;28.80;99.90
13174;DHT22;6652;48.802;9.190;2023-08-12T15:22:21;28.60;99.90
13174;DHT22;6652;48.802;9.190;2023-08-12T15:24:48;28.50;99.90
13174;DHT22;6652;48.802;9.190;2023-08-12T15:27:15;28.30;99.90
13174;DHT22;6652;48.802;9.190;2023-08-12T15:29:44;28.20;99.90
13174;DHT22;6652;48.802;9.190;2023-08-12T15:32:17;28.10;99.90
13174;DHT22;6652;48.802;9.190;2023-08-12T15:34:44;28.10;99.90
13174;DHT22;6652;48.802;9.190;2023-08-12T15:37:11;27.90;99.90
13174;DHT22;6652;48.802;9.190;2023-08-12T15:39:38;28.00;99.90
13174;DHT22;6652;48.802;9.190;2023-08-12T15:42:06;27.80;99.90
13174;DHT22;6652;48.802;9.190;2023-08-12T15:44:34;27.80;99.90
13174;DHT22;6652;48.802;9.190;2023-08-12T15:47:03;27.70;99.90
13174;DHT22;6652;48.802;9.190;2023-08-12T15:49:31;27.70;99.90
13174;DHT22;6652;48.802;9.190;2023-08-12T15:51:59;27.70;99.90
13174;DHT22;6652;48.802;9.190;2023-08-12T15:54:26;27.60;99.90
13174;DHT22;6652;48.802;9.190;2023-08-12T15:56:53;27.50;99.90
13174;DHT22;6652;48.802;9.190;2023-08-12T15:59:21;27.40;99.90
13174;DHT22;6652;48.802;9.190;2023-08-12T16:01:48;27.20;99.90
13174;DHT22;6652;48.802;9.190;2023-08-12T16:04:17;27.20;99.90
13174;DHT22;6652;48.802;9.190;2023-08-12T16:06:44;27.00;99.90
13174;DHT22;6652;48.802;9.190;2023-08-12T16:09:10;26.90;99.90
13174;DHT22;6652;48.802;9.190;2023-08-12T16:11:38;26.90;99.90
13174;DHT22;6652;48.802;9.190;2023-08-12T16:14:05;26.70;99.90
13174;DHT22;6652;48.802;9.190;2023-08-12T16:16:32;26.70;99.90
13174;DHT22;6652;48.802;9.190;2023-08-12T16:18:59;26.70;99.90
13174;DHT22;6652;48.802;9.190;2023-08-12T16:21:27;26.50;99.90
13174;DHT22;6652;48.802;9.190;2023-08-12T16:23:55;26.50;99.90
13174;DHT22;6652;48.802;9.190;2023-08-12T16:26:21;26.30;99.90
13174;DHT22;6652;48.802;9.190;2023-08-12T16:28:49;26.30;99.90
13174;DHT22;6652;48.802;9.190;2023-08-12T16:31:17;26.40;99.90
13174;DHT22;6652;48.802;9.190;2023-08-12T16:33:43;26.10;99.90
13174;DHT22;6652;48.802;9.190;2023-08-12T16:36:10;25.60;99.90
13174;DHT22;6652;48.802;9.190;2023-08-12T16:38:39;25.40;99.90
13174;DHT22;6652;48.802;9.190;2023-08-12T16:41:06;25.40;99.90
13174;DHT22;6652;48.802;9.190;2023-08-12T16:43:33;25.30;99.90
13174;DHT22;6652;48.802;9.190;2023-08-12T16:46:00;25.20;99.90
13174;DHT22;6652;48.802;9.190;2023-08-12T16:48:26;25.10;99.90
13174;DHT22;6652;48.802;9.190;2023-08-12T16:50:53;25.00;99.90
13174;DHT22;6652;48.802;9.190;2023-08-12T16:53:20;24.90;99.90
13174;DHT22;6652;48.802;9.190;2023-08-12T16:55:49;24.90;99.90
13174;DHT22;6652;48.802;9.190;2023-08-12T16:58:16;24.80;99.90
13174;DHT22;6652;48.802;9.190;2023-08-12T17:00:42;24.70;99.90
13174;DHT22;6652;48.802;9.190;2023-08-12T17:03:11;24.80;99.90
13174;DHT22;6652;48.802;9.190;2023-08-12T17:05:37;24.80;99.90
13174;DHT22;6652;48.802;9.190;2023-08-12T17:08:05;24.70;99.90
13174;DHT22;6652;48.802;9.190;2023-08-12T17:10:37;24.70;99.90
13174;DHT22;6652;48.802;9.190;2023-08-12T17:13:05;24.80;99.90
13174;DHT22;6652;48.802;9.190;2023-08-12T17:15:32;24.90;99.90
13174;DHT22;6652;48.802;9.190;2023-08-12T17:17:59;25.00;99.90
13174;DHT22;6652;48.802;9.190;2023-08-12T17:20:26;25.20;99.90
13174;DHT22;6652;48.802;9.190;2023-08-12T17:22:53;25.20;99.90
13174;DHT22;6652;48.802;9.190;2023-08-12T17:25:20;25.30;99.90
13174;DHT22;6652;48.802;9.190;2023-08-12T17:27:46;25.40;99.90
13174;DHT22;6652;48.802;9.190;2023-08-12T17:30:15;25.50;99.90
13174;DHT22;6652;48.802;9.190;2023-08-12T17:32:42;25.40;99.90
13174;DHT22;6652;48.802;9.190;2023-08-12T17:35:09;25.40;99.90
13174;DHT22;6652;48.802;9.190;2023-08-12T17:37:38;25.40;99.90
13174;DHT22;6652;48.802;9.190;2023-08-12T17:40:07;25.40;99.90
13174;DHT22;6652;48.802;9.190;2023-08-12T17:42:36;25.30;99.90
13174;DHT22;6652;48.802;9.190;2023-08-12T17:45:03;25.20;99.90
13174;DHT22;6652;48.802;9.190;2023-08-12T17:47:31;25.10;99.90
13174;DHT22;6652;48.802;9.190;2023-08-12T17:49:58;25.20;99.90
13174;DHT22;6652;48.802;9.190;2023-08-12T17:52:25;25.00;99.90
13174;DHT22;6652;48.802;9.190;2023-08-12T17:54:52;25.00;99.90
13174;DHT22;6652;48.802;9.190;2023-08-12T17:57:19;25.00;99.90
13174;DHT22;6652;48.802;9.190;2023-08-12T17:59:46;24.90;99.90
13174;DHT22;6652;48.802;9.190;2023-08-12T18:02:13;24.80;99.90
13174;DHT22;6652;48.802;9.190;2023-08-12T18:04:41;24.70;99.90
13174;DHT22;6652;48.802;9.190;2023-08-12T18:07:08;24.70;99.90
13174;DHT22;6652;48.802;9.190;2023-08-12T18:09:35;24.80;99.90
13174;DHT22;6652;48.802;9.190;2023-08-12T18:12:02;24.80;99.90
13174;DHT22;6652;48.802;9.190;2023-08-12T18:14:29;24.80;99.90
13174;DHT22;6652;48.802;9.190;2023-08-12T18:16:56;24.70;99.90
13174;DHT22;6652;48.802;9.190;2023-08-12T18:19:23;24.70;99.90
13174;DHT22;6652;48.802;9.190;2023-08-12T18:22:06;24.70;99.90
13174;DHT22;6652;48.802;9.190;2023-08-12T18:24:33;24.50;99.90
13174;DHT22;6652;48.802;9.190;2023-08-12T18:27:00;24.60;99.90
13174;DHT22;6652;48.802;9.190;2023-08-12T18:29:27;24.40;99.90
13174;DHT22;6652;48.802;9.190;2023-08-12T18:31:54;24.30;99.90
13174;DHT22;6652;48.802;9.190;2023-08-12T18:34:20;24.30;99.90
13174;DHT22;6652;48.802;9.190;2023-08-12T18:36:47;24.20;99.90
13174;DHT22;6652;48.802;9.190;2023-08-12T18:39:16;24.20;99.90
13174;DHT22;6652;48.802;9.190;2023-08-12T18:41:43;24.10;99.90
13174;DHT22;6652;48.802;9.190;2023-08-12T18:44:10;24.10;99.90
13174;DHT22;6652;48.802;9.190;2023-08-12T18:46:39;24.10;99.90
13174;DHT22;6652;48.802;9.190;2023-08-12T18:49:06;24.00;99.90
13174;DHT22;6652;48.802;9.190;2023-08-12T18:51:33;23.90;99.90
13174;DHT22;6652;48.802;9.190;2023-08-12T18:54:00;24.10;99.90
13174;DHT22;6652;48.802;9.190;2023-08-12T18:56:30;23.90;99.90
13174;DHT22;6652;48.802;9.190;2023-08-12T18:58:57;23.90;99.90
13174;DHT22;6652;48.802;9.190;2023-08-12T19:01:25;23.90;99.90
13174;DHT22;6652;48.802;9.190;2023-08-12T19:03:53;23.90;99.90
13174;DHT22;6652;48.802;9.190;2023-08-12T19:06:20;23.90;99.90
13174;DHT22;6652;48.802;9.190;2023-08-12T19:08:47;24.30;99.90
13174;DHT22;6652;48.802;9.190;2023-08-12T19:11:14;23.80;99.90
13174;DHT22;6652;48.802;9.190;2023-08-12T19:13:47;23.80;99.90
13174;DHT22;6652;48.802;9.190;2023-08-12T19:16:14;23.80;99.90
13174;DHT22;6652;48.802;9.190;2023-08-12T19:18:41;23.70;99.90
13174;DHT22;6652;48.802;9.190;2023-08-12T19:23:59;23.60;99.90
13174;DHT22;6652;48.802;9.190;2023-08-12T19:26:45;23.50;99.90
13174;DHT22;6652;48.802;9.190;2023-08-12T19:29:44;23.60;99.90
13174;DHT22;6652;48.802;9.190;2023-08-12T19:35:34;23.40;99.90
13174;DHT22;6652;48.802;9.190;2023-08-12T19:38:01;23.40;99.90
13174;DHT22;6652;48.802;9.190;2023-08-12T19:40:28;23.40;99.90
13174;DHT22;6652;48.802;9.190;2023-08-12T19:42:54;23.40;99.90
13174;DHT22;6652;48.802;9.190;2023-08-12T19:45:23;23.40;99.90
13174;DHT22;6652;48.802;9.190;2023-08-12T19:48:00;23.40;99.90
13174;DHT22;6652;48.802;9.190;2023-08-12T19:50:27;23.40;99.90
13174;DHT22;6652;48.802;9.190;2023-08-12T19:52:55;23.40;99.90
13174;DHT22;6652;48.802;9.190;2023-08-12T19:55:24;23.40;99.90
13174;DHT22;6652;48.802;9.190;2023-08-12T19:57:52;23.40;99.90
13174;DHT22;6652;48.802;9.190;2023-08-12T20:00:19;23.30;99.90
13174;DHT22;6652;48.802;9.190;2023-08-12T20:02:48;23.30;99.90
13174;DHT22;6652;48.802;9.190;2023-08-12T20:05:16;23.50;99.90
13174;DHT22;6652;48.802;9.190;2023-08-12T20:07:45;23.30;99.90
13174;DHT22;6652;48.802;9.190;2023-08-12T20:10:13;23.30;99.90
13174;DHT22;6652;48.802;9.190;2023-08-12T20:12:40;23.30;99.90
13174;DHT22;6652;48.802;9.190;2023-08-12T20:15:08;23.30;99.90
13174;DHT22;6652;48.802;9.190;2023-08-12T20:17:35;23.30;99.90
13174;DHT22;6652;48.802;9.190;2023-08-12T20:20:04;23.10;99.90
13174;DHT22;6652;48.802;9.190;2023-08-12T20:22:36;23.20;99.90
13174;DHT22;6652;48.802;9.190;2023-08-12T20:25:03;23.20;99.90
13174;DHT22;6652;48.802;9.190;2023-08-12T20:27:30;23.20;99.90
13174;DHT22;6652;48.802;9.190;2023-08-12T20:29:57;23.20;99.90
13174;DHT22;6652;48.802;9.190;2023-08-12T20:32:24;23.20;99.90
13174;DHT22;6652;48.802;9.190;2023-08-12T20:34:54;23.20;99.90
13174;DHT22;6652;48.802;9.190;2023-08-12T20:37:23;23.20;99.90
13174;DHT22;6652;48.802;9.190;2023-08-12T20:39:50;23.20;99.90
13174;DHT22;6652;48.802;9.190;2023-08-12T20:42:17;23.20;99.90
13174;DHT22;6652;48.802;9.190;2023-08-12T20:44:44;23.20;99.90
13174;DHT22;6652;48.802;9.190;2023-08-12T20:47:11;23.30;99.90
13174;DHT22;6652;48.802;9.190;2023-08-12T20:49:37;23.10;99.90
13174;DHT22;6652;48.802;9.190;2023-08-12T20:52:04;23.10;99.90
13174;DHT22;6652;48.802;9.190;2023-08-12T20:54:33;23.00;99.90
13174;DHT22;6652;48.802;9.190;2023-08-12T20:57:00;23.90;99.90
13174;DHT22;6652;48.802;9.190;2023-08-12T20:59:29;22.80;99.90
13174;DHT22;6652;48.802;9.190;2023-08-12T21:01:56;23.00;99.90
13174;DHT22;6652;48.802;9.190;2023-08-12T21:04:22;23.00;99.90
13174;DHT22;6652;48.802;9.190;2023-08-12T21:06:49;23.10;99.90
13174;DHT22;6652;48.802;9.190;2023-08-12T21:09:21;23.10;99.90
13174;DHT22;6652;48.802;9.190;2023-08-12T21:11:49;22.80;99.90
13174;DHT22;6652;48.802;9.190;2023-08-12T21:14:17;23.40;99.90
13174;DHT22;6652;48.802;9.190;2023-08-12T21:16:44;22.80;99.90
13174;DHT22;6652;48.802;9.190;2023-08-12T21:19:10;23.20;99.90
13174;DHT22;6652;48.802;9.190;2023-08-12T21:21:39;22.80;99.90
13174;DHT22;6652;48.802;9.190;2023-08-12T21:24:06;22.70;99.90
13174;DHT22;6652;48.802;9.190;2023-08-12T21:26:33;22.70;99.90
13174;DHT22;6652;48.802;9.190;2023-08-12T21:29:02;22.70;99.90
13174;DHT22;6652;48.802;9.190;2023-08-12T21:31:28;23.80;99.90
13174;DHT22;6652;48.802;9.190;2023-08-12T21:33:55;23.30;99.90
13174;DHT22;6652;48.802;9.190;2023-08-12T21:36:22;22.70;99.90
13174;DHT22;6652;48.802;9.190;2023-08-12T21:38:49;22.70;99.90
13174;DHT22;6652;48.802;9.190;2023-08-12T21:41:16;22.70;99.90
13174;DHT22;6652;48.802;9.190;2023-08-12T21:43:43;22.80;99.90
13174;DHT22;6652;48.802;9.190;2023-08-12T21:46:11;23.50;99.90
13174;DHT22;6652;48.802;9.190;2023-08-12T21:48:38;22.10;99.90
13174;DHT22;6652;48.802;9.190;2023-08-12T21:51:05;22.70;99.90
13174;DHT22;6652;48.802;9.190;2023-08-12T21:53:31;22.60;99.90
13174;DHT22;6652;48.802;9.190;2023-08-12T21:55:58;23.20;99.90
13174;DHT22;6652;48.802;9.190;2023-08-12T21:58:25;22.60;99.90
13174;DHT22;6652;48.802;9.190;2023-08-12T22:00:54;22.50;99.90
13174;DHT22;6652;48.802;9.190;2023-08-12T22:03:23;22.50;99.90
13174;DHT22;6652;48.802;9.190;2023-08-12T22:05:50;23.20;99.90
13174;DHT22;6652;48.802;9.190;2023-08-12T22:08:17;22.40;99.90
13174;DHT22;6652;48.802;9.190;2023-08-12T22:10:44;22.30;99.90
13174;DHT22;6652;48.802;9.190;2023-08-12T22:13:11;22.20;99.90
13174;DHT22;6652;48.802;9.190;2023-08-12T22:15:38;22.20;99.90
13174;DHT22;6652;48.802;9.190;2023-08-12T22:18:05;22.10;99.90
13174;DHT22;6652;48.802;9.190;2023-08-12T22:20:34;22.10;99.90
13174;DHT22;6652;48.802;9.190;2023-08-12T22:23:01;22.00;99.90
13174;DHT22;6652;48.802;9.190;2023-08-12T22:25:28;22.00;99.90
13174;DHT22;6652;48.802;9.190;2023-08-12T22:27:55;22.00;99.90
13174;DHT22;6652;48.802;9.190;2023-08-12T22:30:22;22.00;99.90
13174;DHT22;6652;48.802;9.190;2023-08-12T22:32:49;22.00;99.90
13174;DHT22;6652;48.802;9.190;2023-08-12T22:35:16;22.10;99.90
13174;DHT22;6652;48.802;9.190;2023-08-12T22:37:44;22.10;99.90
13174;DHT22;6652;48.802;9.190;2023-08-12T22:40:11;22.10;99.90
13174;DHT22;6652;48.802;9.190;2023-08-12T22:42:38;22.10;99.90
13174;DHT22;6652;48.802;9.190;2023-08-12T22:45:06;22.00;99.90
13174;DHT22;6652;48.802;9.190;2023-08-12T22:47:33;22.00;99.90
13174;DHT22;6652;48.802;9.190;2023-08-12T22:50:00;22.00;99.90
13174;DHT22;6652;48.802;9.190;2023-08-12T22:52:29;21.90;99.90
13174;DHT22;6652;48.802;9.190;2023-08-12T22:54:57;21.90;99.90
13174;DHT22;6652;48.802;9.190;2023-08-12T22:57:24;21.80;99.90
13174;DHT22;6652;48.802;9.190;2023-08-12T22:59:51;21.80;99.90
13174;DHT22;6652;48.802;9.190;2023-08-12T23:02:17;21.80;99.90
13174;DHT22;6652;48.802;9.190;2023-08-12T23:04:44;21.90;99.90
13174;DHT22;6652;48.802;9.190;2023-08-12T23:07:11;21.70;99.90
13174;DHT22;6652;48.802;9.190;2023-08-12T23:09:38;21.70;99.90
13174;DHT22;6652;48.802;9.190;2023-08-12T23:12:06;21.60;99.90
13174;DHT22;6652;48.802;9.190;2023-08-12T23:14:33;21.60;99.90